createdAt,value
2019-05-12T00:00:51.008Z,7.90
2019-05-12T00:03:22.596Z,6.60
2019-05-12T00:05:59.699Z,7.67
2019-05-12T00:08:29.761Z,7.50
2019-05-12T00:10:59.626Z,10.73
2019-05-12T00:13:29.853Z,8.53
2019-05-12T00:15:59.659Z,8.63
2019-05-12T00:18:29.773Z,6.63
2019-05-12T00:20:59.369Z,8.57
2019-05-12T00:23:31.281Z,9.20
2019-05-12T00:26:01.559Z,9.20
2019-05-12T00:28:31.787Z,12.73
2019-05-12T00:31:01.611Z,7.27
2019-05-12T00:33:31.227Z,8.33
2019-05-12T00:36:01.043Z,9.43
2019-05-12T00:38:31.077Z,8.73
2019-05-12T00:41:00.845Z,9.43
2019-05-12T00:43:33.449Z,9.97
2019-05-12T00:46:03.179Z,10.97
2019-05-12T00:48:34.290Z,7.93
2019-05-12T00:51:03.944Z,6.80
2019-05-12T00:53:39.943Z,8.73
2019-05-12T00:56:08.460Z,11.43
2019-05-12T00:58:39.677Z,7.77
2019-05-12T01:01:09.392Z,13.03
2019-05-12T01:03:39.548Z,12.63
2019-05-12T01:06:09.512Z,9.80
2019-05-12T01:08:39.900Z,8.67
2019-05-12T01:11:10.599Z,11.20
2019-05-12T01:13:40.632Z,9.57
2019-05-12T01:16:10.307Z,8.13
2019-05-12T01:18:40.478Z,9.17
2019-05-12T01:21:10.866Z,8.90
2019-05-12T01:23:53.759Z,7.80
2019-05-12T01:26:12.700Z,7.80
2019-05-12T01:28:42.428Z,14.33
2019-05-12T01:31:15.317Z,8.63
2019-05-12T01:33:45.829Z,8.63
2019-05-12T01:36:18.128Z,7.97
2019-05-12T01:38:48.330Z,9.87
2019-05-12T01:41:18.171Z,9.17
2019-05-12T01:43:49.219Z,8.20
2019-05-12T01:46:19.076Z,8.30
2019-05-12T01:48:59.110Z,5.93
2019-05-12T01:51:29.554Z,6.97
2019-05-12T01:54:11.049Z,9.50
2019-05-12T01:56:30.695Z,6.60
2019-05-12T01:59:00.864Z,12.17
2019-05-12T02:01:35.670Z,7.60
2019-05-12T02:04:07.736Z,6.77
2019-05-12T02:06:38.613Z,6.20
2019-05-12T02:09:23.980Z,8.23
2019-05-12T02:14:24.383Z,7.13
2019-05-12T02:16:58.183Z,5.30
2019-05-12T02:19:28.395Z,9.90
2019-05-12T02:21:58.334Z,5.33
2019-05-12T02:24:30.630Z,8.17
2019-05-12T02:27:01.255Z,7.20
2019-05-12T02:29:43.629Z,8.23
2019-05-12T02:32:28.374Z,9.53
2019-05-12T02:34:55.620Z,19.23
2019-05-12T02:37:26.238Z,5.90
2019-05-12T02:39:56.170Z,8.67
2019-05-12T02:42:28.850Z,11.03
2019-05-12T02:44:59.407Z,9.33
2019-05-12T02:47:34.730Z,9.70
2019-05-12T02:50:08.356Z,10.63
2019-05-12T02:52:44.300Z,8.20
2019-05-12T02:55:14.915Z,6.83
2019-05-12T02:57:46.355Z,9.10
2019-05-12T03:00:19.749Z,10.70
2019-05-12T03:02:54.678Z,6.80
2019-05-12T03:05:25.074Z,11.40
2019-05-12T03:07:57.097Z,12.40
2019-05-12T03:10:28.580Z,8.17
2019-05-12T03:12:59.850Z,6.07
2019-05-12T03:15:29.956Z,11.27
2019-05-12T03:18:15.598Z,12.17
2019-05-12T03:20:46.533Z,10.13
2019-05-12T03:23:19.778Z,7.57
2019-05-12T03:25:54.640Z,7.83
2019-05-12T03:28:25.859Z,14.67
2019-05-12T03:30:57.844Z,9.63
2019-05-12T03:33:34.385Z,4.27
2019-05-12T03:36:01.204Z,10.50
2019-05-12T03:38:31.484Z,7.73
2019-05-12T03:41:10.299Z,8.07
2019-05-12T03:43:44.883Z,7.43
2019-05-12T03:49:25.417Z,9.77
2019-05-12T03:52:24.364Z,7.87
2019-05-12T03:54:56.049Z,9.80
2019-05-12T03:58:04.539Z,7.00
2019-05-12T04:00:35.830Z,9.33
2019-05-12T04:03:07.428Z,9.67
2019-05-12T04:05:48.857Z,10.47
2019-05-12T04:08:20.408Z,11.57
2019-05-12T04:10:50.837Z,9.87
2019-05-12T04:22:24.733Z,10.27
2019-05-12T04:27:48.834Z,8.67
2019-05-12T04:30:24.777Z,9.23
2019-05-12T04:32:55.324Z,6.23
2019-05-12T04:35:34.552Z,11.83
2019-05-12T04:38:04.413Z,7.23
2019-05-12T04:40:45.034Z,8.90
2019-05-12T04:43:14.321Z,9.70
2019-05-12T04:46:05.290Z,9.93
2019-05-12T04:48:45.354Z,7.37
2019-05-12T04:51:28.425Z,8.47
2019-05-12T04:56:36.060Z,7.30
2019-05-12T05:02:05.460Z,7.37
2019-05-12T05:04:36.047Z,4.33
2019-05-12T05:11:06.058Z,6.57
2019-05-12T05:13:49.520Z,5.63
2019-05-12T05:16:19.585Z,6.80
2019-05-12T05:18:54.306Z,6.63
2019-05-12T05:21:24.129Z,6.30
2019-05-12T05:23:57.361Z,7.17
2019-05-12T05:26:33.886Z,5.67
2019-05-12T05:29:04.617Z,4.43
2019-05-12T05:31:47.801Z,6.40
2019-05-12T05:37:48.558Z,5.00
2019-05-12T05:46:28.931Z,4.23
2019-05-12T05:56:03.929Z,4.13
2019-05-12T05:58:45.486Z,6.47
2019-05-12T06:01:27.542Z,3.53
2019-05-12T06:03:58.406Z,4.37
2019-05-12T06:06:29.070Z,4.10
2019-05-12T06:09:00.375Z,3.20
2019-05-12T06:11:31.228Z,2.63
2019-05-12T06:14:03.241Z,4.13
2019-05-12T06:16:36.072Z,5.23
2019-05-12T06:19:06.941Z,5.30
2019-05-12T06:21:38.578Z,3.13
2019-05-12T06:24:15.530Z,5.07
2019-05-12T06:26:54.552Z,6.50
2019-05-12T06:29:20.361Z,2.67
2019-05-12T06:31:54.164Z,3.37
2019-05-12T06:34:28.461Z,2.93
2019-05-12T06:37:05.168Z,4.37
2019-05-12T06:39:34.221Z,4.77
2019-05-12T06:42:12.265Z,4.43
2019-05-12T06:44:58.667Z,3.67
2019-05-12T06:47:29.576Z,4.33
2019-05-12T06:50:00.732Z,3.27
2019-05-12T06:52:33.579Z,2.53
2019-05-12T06:55:04.021Z,2.77
2019-05-12T06:57:34.394Z,3.07
2019-05-12T07:00:09.356Z,3.03
2019-05-12T07:02:49.970Z,4.53
2019-05-12T07:05:14.431Z,3.00
2019-05-12T07:07:46.011Z,6.70
2019-05-12T07:10:35.656Z,3.47
2019-05-12T07:12:58.869Z,3.50
2019-05-12T07:15:23.575Z,5.30
2019-05-12T07:18:17.833Z,3.20
2019-05-12T07:23:14.244Z,5.87
2019-05-12T07:25:45.086Z,3.10
2019-05-12T07:28:17.839Z,4.57
2019-05-12T07:30:49.823Z,4.40
2019-05-12T07:33:20.555Z,4.47
2019-05-12T07:36:01.189Z,1.97
2019-05-12T07:38:34.414Z,3.77
2019-05-12T07:41:10.731Z,2.77
2019-05-12T07:43:41.120Z,2.60
2019-05-12T07:46:13.577Z,2.83
2019-05-12T07:48:50.799Z,5.67
2019-05-12T07:51:18.606Z,5.67
2019-05-12T07:53:57.172Z,5.57
2019-05-12T07:56:26.063Z,8.70
2019-05-12T07:58:54.758Z,3.87
2019-05-12T08:01:29.077Z,4.23
2019-05-12T08:04:01.309Z,3.30
2019-05-12T08:06:41.405Z,3.27
2019-05-12T08:09:05.960Z,3.77
2019-05-12T08:11:38.671Z,4.07
2019-05-12T08:14:15.488Z,4.27
2019-05-12T08:16:40.539Z,3.70
2019-05-12T08:19:17.148Z,4.97
2019-05-12T08:21:49.027Z,4.67
2019-05-12T08:24:18.477Z,2.83
2019-05-12T08:27:05.470Z,3.80
2019-05-12T08:32:27.239Z,6.43
2019-05-12T08:38:03.632Z,2.63
2019-05-12T08:40:34.159Z,3.17
2019-05-12T08:43:10.110Z,4.67
2019-05-12T08:45:38.666Z,4.30
2019-05-12T08:48:16.080Z,2.13
2019-05-12T08:50:46.147Z,3.17
2019-05-12T08:53:21.276Z,5.73
2019-05-12T08:56:13.361Z,2.83
2019-05-12T09:07:18.827Z,4.00
2019-05-12T09:09:49.285Z,4.37
2019-05-12T09:12:24.429Z,2.43
2019-05-12T09:14:54.690Z,2.93
2019-05-12T09:17:24.621Z,4.90
2019-05-12T09:20:03.635Z,1.60
2019-05-12T09:22:29.619Z,2.53
2019-05-12T09:25:06.320Z,2.50
2019-05-12T09:27:33.320Z,3.37
2019-05-12T09:30:05.365Z,4.00
2019-05-12T09:32:39.092Z,7.33
2019-05-12T09:35:07.910Z,2.70
2019-05-12T09:37:40.273Z,3.73
2019-05-12T09:40:11.281Z,3.70
2019-05-12T09:42:44.124Z,2.60
2019-05-12T09:45:14.913Z,3.00
2019-05-12T09:47:45.334Z,2.80
2019-05-12T09:50:20.107Z,2.10
2019-05-12T09:52:50.180Z,4.37
2019-05-12T09:55:22.125Z,2.50
2019-05-12T09:57:51.490Z,2.80
2019-05-12T10:00:23.840Z,3.67
2019-05-12T10:02:58.883Z,2.50
2019-05-12T10:05:25.174Z,3.73
2019-05-12T10:08:04.587Z,3.37
2019-05-12T10:10:40.254Z,1.83
2019-05-12T10:13:07.713Z,2.03
2019-05-12T10:15:39.273Z,2.17
2019-05-12T10:18:11.117Z,3.70
2019-05-12T10:20:40.863Z,1.20
2019-05-12T10:23:18.022Z,2.70
2019-05-12T10:25:44.559Z,2.47
2019-05-12T10:28:16.196Z,3.23
2019-05-12T10:30:55.274Z,2.47
2019-05-12T10:33:18.164Z,1.67
2019-05-12T10:35:48.219Z,1.93
2019-05-12T10:38:19.165Z,4.80
2019-05-12T10:41:07.893Z,3.63
2019-05-12T10:43:43.322Z,2.00
2019-05-12T10:46:18.508Z,2.27
2019-05-12T10:48:53.813Z,3.87
2019-05-12T10:51:26.060Z,3.63
2019-05-12T10:54:05.821Z,2.63
2019-05-12T10:56:30.096Z,5.37
2019-05-12T10:59:04.117Z,3.67
2019-05-12T11:01:48.824Z,4.63
2019-05-12T11:04:25.118Z,2.67
2019-05-12T11:07:04.503Z,3.23
2019-05-12T11:09:35.193Z,2.73
2019-05-12T11:12:06.906Z,2.47
2019-05-12T11:14:39.224Z,3.40
2019-05-12T11:17:10.869Z,2.30
2019-05-12T11:19:52.014Z,2.60
2019-05-12T11:22:26.448Z,4.57
2019-05-12T11:24:56.380Z,3.87
2019-05-12T11:27:34.480Z,2.37
2019-05-12T11:30:04.277Z,2.90
2019-05-12T11:32:40.930Z,5.43
2019-05-12T11:35:15.505Z,3.20
2019-05-12T11:37:46.910Z,2.77
2019-05-12T11:40:19.054Z,2.80
2019-05-12T11:42:55.663Z,2.00
2019-05-12T11:45:24.203Z,1.53
2019-05-12T11:48:10.304Z,1.50
2019-05-12T11:50:47.793Z,1.70
2019-05-12T11:53:15.409Z,2.47
2019-05-12T11:55:47.411Z,5.70
2019-05-12T11:58:19.448Z,1.00
2019-05-12T12:01:04.704Z,1.63
2019-05-12T12:03:31.090Z,2.17
2019-05-12T12:06:03.808Z,3.87
2019-05-12T12:08:37.117Z,1.77
2019-05-12T12:11:10.690Z,2.07
2019-05-12T12:13:38.073Z,2.33
2019-05-12T12:16:11.146Z,2.10
2019-05-12T12:18:39.361Z,2.40
2019-05-12T12:21:10.577Z,2.60
2019-05-12T12:23:47.310Z,1.23
2019-05-12T12:26:20.137Z,1.57
2019-05-12T12:28:50.451Z,4.30
2019-05-12T12:31:34.702Z,3.97
2019-05-12T12:34:03.053Z,5.73
2019-05-12T12:36:37.615Z,4.27
2019-05-12T12:39:17.203Z,2.43
2019-05-12T12:41:58.331Z,2.63
2019-05-12T12:44:24.233Z,3.43
2019-05-12T12:46:59.908Z,1.80
2019-05-12T12:49:29.166Z,3.50
2019-05-12T12:51:58.357Z,4.00
2019-05-12T12:54:29.530Z,2.33
2019-05-12T12:57:06.584Z,3.97
2019-05-12T12:59:33.653Z,3.10
2019-05-12T13:02:05.774Z,2.43
2019-05-12T13:04:39.717Z,2.93
2019-05-12T13:07:08.268Z,2.77
2019-05-12T13:09:40.044Z,1.73
2019-05-12T13:12:15.964Z,3.00
2019-05-12T13:14:44.315Z,4.53
2019-05-12T13:17:14.582Z,2.03
2019-05-12T13:19:48.799Z,2.50
2019-05-12T13:22:19.029Z,4.03
2019-05-12T13:24:48.972Z,2.60
2019-05-12T13:27:24.426Z,1.13
2019-05-12T13:29:50.888Z,2.07
2019-05-12T13:32:31.981Z,2.77
2019-05-12T13:34:59.733Z,3.47
2019-05-12T13:37:35.674Z,1.77
2019-05-12T13:40:07.282Z,1.60
2019-05-12T13:42:38.914Z,2.67
2019-05-12T13:45:16.353Z,2.23
2019-05-12T13:47:45.864Z,2.90
2019-05-12T13:50:21.463Z,1.57
2019-05-12T13:52:54.330Z,3.97
2019-05-12T13:55:24.760Z,1.93
2019-05-12T13:57:57.723Z,6.03
2019-05-12T14:00:34.024Z,2.13
2019-05-12T14:03:09.732Z,1.43
2019-05-12T14:05:41.254Z,3.77
2019-05-12T14:08:14.541Z,2.30
2019-05-12T14:10:53.468Z,3.60
2019-05-12T14:13:18.890Z,1.90
2019-05-12T14:15:56.260Z,2.53
2019-05-12T14:18:26.369Z,1.57
2019-05-12T14:21:00.316Z,3.77
2019-05-12T14:24:02.948Z,4.37
2019-05-12T14:26:33.356Z,1.87
2019-05-12T14:31:54.487Z,2.13
2019-05-12T14:34:20.842Z,2.40
2019-05-12T14:37:08.393Z,2.73
2019-05-12T14:39:40.158Z,1.67
2019-05-12T14:42:08.632Z,1.23
2019-05-12T14:45:00.989Z,1.50
2019-05-12T14:47:38.877Z,2.30
2019-05-12T14:50:08.139Z,4.57
2019-05-12T14:52:37.888Z,3.87
2019-05-12T14:55:10.553Z,3.93
2019-05-12T14:57:43.283Z,2.40
2019-05-12T15:00:21.068Z,2.67
2019-05-12T15:03:03.969Z,2.87
2019-05-12T15:05:41.166Z,2.97
2019-05-12T15:08:04.811Z,3.00
2019-05-12T15:10:38.453Z,3.03
2019-05-12T15:13:14.147Z,1.40
2019-05-12T15:15:44.226Z,3.43
2019-05-12T15:18:16.022Z,2.53
2019-05-12T15:20:51.732Z,5.10
2019-05-12T15:23:23.970Z,2.33
2019-05-12T15:25:53.801Z,3.90
2019-05-12T15:28:23.815Z,4.60
2019-05-12T15:30:54.136Z,2.57
2019-05-12T15:33:24.597Z,4.73
2019-05-12T15:35:54.877Z,5.80
2019-05-12T15:38:24.148Z,6.00
2019-05-12T15:40:54.123Z,2.23
2019-05-12T15:43:24.417Z,3.20
2019-05-12T15:45:57.944Z,2.17
2019-05-12T15:48:26.262Z,3.50
2019-05-12T15:50:59.566Z,2.87
2019-05-12T15:53:28.280Z,3.63
2019-05-12T15:56:05.757Z,1.77
2019-05-12T15:58:30.849Z,2.47
2019-05-12T16:01:00.918Z,5.27
2019-05-12T16:03:30.649Z,2.30
2019-05-12T16:06:01.270Z,3.03
2019-05-12T16:08:31.727Z,5.03
2019-05-12T16:11:04.877Z,9.93
2019-05-12T16:13:33.945Z,3.30
2019-05-12T16:16:06.615Z,7.40
2019-05-12T16:18:35.340Z,2.57
2019-05-12T16:21:09.668Z,4.47
2019-05-12T16:23:41.221Z,5.67
2019-05-12T16:26:13.092Z,5.30
2019-05-12T16:28:44.199Z,4.57
2019-05-12T16:31:14.509Z,6.07
2019-05-12T16:33:52.206Z,4.13
2019-05-12T16:36:18.764Z,2.97
2019-05-12T16:38:54.939Z,2.43
2019-05-12T16:41:28.116Z,7.03
2019-05-12T16:43:53.793Z,3.57
2019-05-12T16:46:28.043Z,6.23
2019-05-12T16:48:58.015Z,3.57
2019-05-12T16:51:28.317Z,3.00
2019-05-12T16:54:00.071Z,5.77
2019-05-12T16:56:30.541Z,3.60
2019-05-12T16:59:00.525Z,2.60
2019-05-12T17:01:30.746Z,3.80
2019-05-12T17:04:01.430Z,5.60
2019-05-12T17:06:36.786Z,2.73
2019-05-12T17:09:05.225Z,3.27
2019-05-12T17:11:37.259Z,2.37
2019-05-12T17:14:06.380Z,6.67
2019-05-12T17:16:41.822Z,2.83
2019-05-12T17:19:10.670Z,4.00
2019-05-12T17:21:40.496Z,2.50
2019-05-12T17:24:10.548Z,4.43
2019-05-12T17:26:40.349Z,2.60
2019-05-12T17:29:10.114Z,5.23
2019-05-12T17:31:40.287Z,2.83
2019-05-12T17:34:10.611Z,2.63
2019-05-12T17:36:41.310Z,5.00
2019-05-12T17:39:11.087Z,4.40
2019-05-12T17:41:42.729Z,3.67
2019-05-12T17:44:13.590Z,3.27
2019-05-12T17:46:44.215Z,5.47
2019-05-12T17:49:25.575Z,7.33
2019-05-12T17:51:48.375Z,5.77
2019-05-12T17:54:21.635Z,5.20
2019-05-12T17:56:49.947Z,3.80
2019-05-12T17:59:27.165Z,5.20
2019-05-12T18:01:53.779Z,4.33
2019-05-12T18:04:26.613Z,4.80
2019-05-12T18:06:55.233Z,4.00
2019-05-12T18:09:24.943Z,5.13
2019-05-12T18:11:56.379Z,6.07
2019-05-12T18:14:27.934Z,3.67
2019-05-12T18:17:08.291Z,3.93
2019-05-12T18:19:33.696Z,4.17
2019-05-12T18:22:08.863Z,4.83
2019-05-12T18:24:35.709Z,3.40
2019-05-12T18:27:07.737Z,3.30
2019-05-12T18:29:37.132Z,4.93
2019-05-12T18:32:08.658Z,3.77
2019-05-12T18:34:38.485Z,4.93
2019-05-12T18:37:08.269Z,2.60
2019-05-12T18:39:38.622Z,2.80
2019-05-12T18:42:08.581Z,5.77
2019-05-12T18:44:38.974Z,5.83
2019-05-12T18:47:14.366Z,4.87
2019-05-12T18:50:00.192Z,5.37
2019-05-12T18:52:39.288Z,3.67
2019-05-12T18:55:02.067Z,3.70
2019-05-12T18:57:34.064Z,7.40
2019-05-12T19:00:19.052Z,3.67
2019-05-12T19:02:51.170Z,4.77
2019-05-12T19:05:31.076Z,4.30
2019-05-12T19:08:03.668Z,6.00
2019-05-12T19:10:33.556Z,7.73
2019-05-12T19:13:06.936Z,5.33
2019-05-12T19:15:36.932Z,3.43
2019-05-12T19:18:06.790Z,3.90
2019-05-12T19:20:37.835Z,7.03
2019-05-12T19:23:07.997Z,4.80
2019-05-12T19:25:40.699Z,6.30
2019-05-12T19:28:10.633Z,4.57
2019-05-12T19:30:43.586Z,10.10
2019-05-12T19:33:13.598Z,6.73
2019-05-12T19:35:43.735Z,7.17
2019-05-12T19:38:15.604Z,3.70
2019-05-12T19:40:48.921Z,5.67
2019-05-12T19:43:17.173Z,4.47
2019-05-12T19:45:47.086Z,4.40
2019-05-12T19:48:26.558Z,7.40
2019-05-12T19:50:52.741Z,7.23
2019-05-12T19:53:20.499Z,7.07
2019-05-12T19:56:00.686Z,4.93
2019-05-12T19:58:30.776Z,3.13
2019-05-12T20:01:00.914Z,3.53
2019-05-12T20:03:33.361Z,3.43
2019-05-12T20:06:03.582Z,5.93
2019-05-12T20:08:33.579Z,3.97
2019-05-12T20:11:03.830Z,6.60
2019-05-12T20:13:35.900Z,3.37
2019-05-12T20:16:05.983Z,8.67
2019-05-12T20:18:42.985Z,4.93
2019-05-12T20:21:07.922Z,3.70
2019-05-12T20:23:37.982Z,4.73
2019-05-12T20:26:08.241Z,3.93
2019-05-12T20:28:42.104Z,3.80
2019-05-12T20:31:10.070Z,3.77
2019-05-12T20:34:04.067Z,5.33
2019-05-12T20:36:27.764Z,3.67
2019-05-12T20:38:59.322Z,4.30
2019-05-12T20:41:33.503Z,4.50
2019-05-12T20:44:02.630Z,5.60
2019-05-12T20:46:34.980Z,5.37
2019-05-12T20:49:12.016Z,5.30
2019-05-12T20:52:09.325Z,6.93
2019-05-12T20:54:40.072Z,8.17
2019-05-12T20:57:14.093Z,7.90
2019-05-12T21:02:46.803Z,7.40
2019-05-12T21:05:20.048Z,3.97
2019-05-12T21:08:02.195Z,3.17
2019-05-12T21:10:29.739Z,5.87
2019-05-12T21:13:05.477Z,7.00
2019-05-12T21:15:42.672Z,5.20
2019-05-12T21:18:09.418Z,3.77
2019-05-12T21:20:39.193Z,4.10
2019-05-12T21:23:09.533Z,9.03
2019-05-12T21:25:46.078Z,6.80
2019-05-12T21:28:14.637Z,7.43
2019-05-12T21:30:48.236Z,5.77
2019-05-12T21:33:15.764Z,5.57
2019-05-12T21:35:54.652Z,6.83
2019-05-12T21:38:29.418Z,5.50
2019-05-12T21:40:56.503Z,5.43
2019-05-12T21:43:26.630Z,7.13
2019-05-12T21:46:01.060Z,5.80
2019-05-12T21:48:29.588Z,7.00
2019-05-12T21:51:00.749Z,7.10
2019-05-12T21:53:34.489Z,6.23
2019-05-12T21:56:05.872Z,7.33
2019-05-12T21:58:45.470Z,7.70
2019-05-12T22:01:13.623Z,6.70
2019-05-12T22:03:54.545Z,6.03
2019-05-12T22:06:21.771Z,10.90
2019-05-12T22:08:55.423Z,6.73
2019-05-12T22:11:23.993Z,10.13
2019-05-12T22:14:00.144Z,9.27
2019-05-12T22:16:29.611Z,8.07
2019-05-12T22:18:59.684Z,8.20
2019-05-12T22:21:29.774Z,5.07
2019-05-12T22:23:59.745Z,5.47
2019-05-12T22:26:36.312Z,10.10
2019-05-12T22:31:48.715Z,5.67
2019-05-12T22:34:37.252Z,4.47
2019-05-12T22:37:20.693Z,8.77
2019-05-12T22:39:54.328Z,13.23
2019-05-12T22:42:24.510Z,6.33
2019-05-12T22:45:01.448Z,7.93
2019-05-12T22:47:29.525Z,11.83
2019-05-12T22:49:59.782Z,9.97
2019-05-12T22:52:29.887Z,8.17
2019-05-12T22:55:00.353Z,10.83
2019-05-12T22:57:35.670Z,8.43
2019-05-12T23:00:03.963Z,13.20
2019-05-12T23:02:46.819Z,10.00
2019-05-12T23:05:20.508Z,4.77
2019-05-12T23:07:48.826Z,13.10
2019-05-12T23:10:18.990Z,8.63
2019-05-12T23:12:50.244Z,13.00
2019-05-12T23:15:24.504Z,6.90
2019-05-12T23:17:54.265Z,8.60
2019-05-12T23:20:48.023Z,11.13
2019-05-12T23:23:24.308Z,5.60
2019-05-12T23:26:00.392Z,9.33
2019-05-12T23:28:27.724Z,7.83
2019-05-12T23:31:05.984Z,7.67
2019-05-12T23:33:44.206Z,11.83
2019-05-12T23:36:19.711Z,11.57
2019-05-12T23:39:00.370Z,10.33
2019-05-12T23:41:23.853Z,8.40
2019-05-12T23:43:56.751Z,6.20
2019-05-12T23:46:26.557Z,9.70
2019-05-12T23:48:59.411Z,8.87
2019-05-12T23:51:29.862Z,6.00
2019-05-12T23:54:01.087Z,7.73
2019-05-12T23:56:31.059Z,7.90
2019-05-12T23:59:04.563Z,7.13
